Time;durP1;ratioP1;P1;durP2;ratioP2;P2;SDS_P1;SDS_P2;PMS_P1;PMS_P2;Temp;Humidity;BMP_temperature;BMP_pressure;BME280_temperature;BME280_humidity;BME280_pressure;Samples;Min_cycle;Max_cycle;Signal;HPM_P1;HPM_P2
2023/09/05 00:00:40;;;;;;;5.90;2.33;;;;;;;-145.69;34.54;51699.81;5134278;27;20189;-79
2023/09/05 00:03:07;;;;;;;3.50;2.40;;;;;;;-145.69;33.77;51715.66;5134285;27;20299;-78
2023/09/05 00:05:35;;;;;;;5.85;1.90;;;;;;;-145.69;33.52;51725.56;5133656;27;20189;-79
2023/09/05 00:08:01;;;;;;;3.13;1.92;;;;;;;-145.69;33.71;51711.72;5133796;27;20199;-79
2023/09/05 00:10:28;;;;;;;3.35;1.85;;;;;;;-145.69;34.13;51711.72;5134084;27;20273;-80
2023/09/05 00:12:54;;;;;;;4.03;2.30;;;;;;;-145.69;33.99;51674.09;5133626;27;20189;-79
2023/09/05 00:15:20;;;;;;;3.95;2.15;;;;;;;-145.69;33.99;51719.63;5133930;27;20231;-78
2023/09/05 00:17:47;;;;;;;3.25;2.10;;;;;;;-145.69;34.22;51711.72;5133714;27;20678;-80
2023/09/05 00:20:15;;;;;;;4.13;2.28;;;;;;;-145.69;34.05;51707.75;5133983;27;20651;-80
2023/09/05 00:22:43;;;;;;;3.08;2.05;;;;;;;-145.69;34.08;51731.50;5133616;27;20193;-80
2023/09/05 00:25:11;;;;;;;3.85;2.28;;;;;;;-145.69;33.88;51727.53;5133902;28;20601;-80
2023/09/05 00:27:39;;;;;;;3.63;1.83;;;;;;;-145.69;33.37;51731.50;5133782;27;20201;-79
2023/09/05 00:30:07;;;;;;;4.50;2.38;;;;;;;-145.69;33.66;51735.47;5133521;27;20204;-80
2023/09/05 00:32:33;;;;;;;4.32;2.13;;;;;;;-145.69;34.06;51703.78;5133746;27;20547;-79
2023/09/05 00:35:00;;;;;;;3.55;1.65;;;;;;;-145.69;33.44;51723.59;5133355;27;20252;-78
2023/09/05 00:37:27;;;;;;;3.63;2.00;;;;;;;-145.69;33.83;51721.59;5133706;27;20200;-79
2023/09/05 00:39:55;;;;;;;5.13;2.13;;;;;;;-145.69;32.84;51719.63;5133574;27;20203;-81
2023/09/05 00:42:21;;;;;;;4.43;2.30;;;;;;;-145.69;33.25;51719.63;5133844;27;20236;-80
2023/09/05 00:44:49;;;;;;;3.35;1.73;;;;;;;-145.69;33.15;51725.56;5133677;27;20205;-82
2023/09/05 00:47:16;;;;;;;3.90;2.05;;;;;;;-145.69;33.30;51699.81;5133205;27;20554;-81
2023/09/05 00:49:47;;;;;;;5.75;1.88;;;;;;;-145.69;33.36;51719.63;5133762;28;20559;-80
2023/09/05 00:52:14;;;;;;;3.92;2.33;;;;;;;-145.69;32.98;51725.56;5130001;28;20193;-80
2023/09/05 00:54:42;;;;;;;4.00;2.22;;;;;;;-145.69;32.65;51735.47;5133523;27;20681;-79
2023/09/05 00:57:14;;;;;;;2.97;1.45;;;;;;;-145.69;33.00;51707.75;5132194;27;20341;-79
2023/09/05 00:59:41;;;;;;;3.25;1.80;;;;;;;-145.69;32.66;51719.63;5137245;27;20204;-81
2023/09/05 01:02:07;;;;;;;3.42;1.77;;;;;;;-145.69;33.05;51707.75;5137496;27;20201;-80
2023/09/05 01:04:34;;;;;;;4.63;2.20;;;;;;;-145.69;33.13;51721.59;5137406;27;20197;-78
2023/09/05 01:07:05;;;;;;;2.90;1.60;;;;;;;-145.69;32.40;51721.59;5122343;27;20201;-81
2023/09/05 01:09:39;;;;;;;4.97;1.92;;;;;;;-145.69;32.73;51707.75;5137012;27;20671;-80
2023/09/05 01:12:07;;;;;;;6.60;2.10;;;;;;;-145.69;33.13;51703.78;5136867;27;20185;-78
2023/09/05 01:14:35;;;;;;;2.75;1.58;;;;;;;-145.69;32.65;51713.69;5136883;27;20213;-79
2023/09/05 01:17:02;;;;;;;2.85;1.65;;;;;;;-145.69;33.40;51715.66;5136799;27;20201;-80
2023/09/05 01:19:30;;;;;;;3.13;1.50;;;;;;;-145.69;33.62;51691.91;5137149;27;20708;-80
2023/09/05 01:22:14;;;;;;;2.80;1.55;;;;;;;-145.69;33.95;51727.53;5137243;27;20193;-79
2023/09/05 01:24:43;;;;;;;2.72;1.58;;;;;;;-145.69;34.10;51731.50;5116471;28;20209;-78
2023/09/05 01:27:17;;;;;;;3.13;1.45;;;;;;;-145.69;33.88;51737.44;5116506;28;20197;-79
2023/09/05 01:29:44;;;;;;;3.78;1.90;;;;;;;-145.69;34.49;51711.72;5126150;27;20203;-79
2023/09/05 01:32:11;;;;;;;5.78;1.52;;;;;;;-145.69;34.52;51697.84;5136198;27;20196;-81
2023/09/05 01:34:38;;;;;;;2.45;1.42;;;;;;;-145.69;34.90;51715.66;5136699;27;20216;-80
2023/09/05 01:37:05;;;;;;;1.88;1.42;;;;;;;-145.69;34.90;51709.72;5136837;27;20685;-79
2023/09/05 01:39:31;;;;;;;3.08;1.65;;;;;;;-145.69;35.47;51715.66;5136801;27;20193;-79
2023/09/05 01:42:00;;;;;;;3.35;1.20;;;;;;;-145.69;35.41;51741.41;5136380;27;20205;-80
2023/09/05 01:44:26;;;;;;;2.30;1.23;;;;;;;-145.69;35.41;51735.47;5136765;27;20203;-79
2023/09/05 01:46:53;;;;;;;2.17;1.30;;;;;;;-145.69;35.47;51709.72;5136492;27;20201;-79
2023/09/05 01:49:19;;;;;;;2.35;1.42;;;;;;;-145.69;35.93;51731.50;5136654;27;20201;-78
2023/09/05 01:51:46;;;;;;;2.42;1.60;;;;;;;-145.69;35.65;51717.66;5136414;27;20196;-79
2023/09/05 01:54:12;;;;;;;1.73;1.20;;;;;;;-145.69;35.78;51733.50;5136575;27;20196;-78
2023/09/05 01:56:39;;;;;;;1.88;1.30;;;;;;;-145.69;35.83;51743.38;5136390;27;20662;-81
2023/09/05 01:59:07;;;;;;;3.33;1.63;;;;;;;-145.69;36.41;51731.50;5135956;27;20188;-79
2023/09/05 02:01:33;;;;;;;2.38;1.60;;;;;;;-145.69;36.19;51741.41;5135045;27;20196;-78
2023/09/05 02:04:00;;;;;;;2.08;1.25;;;;;;;-145.69;36.63;51741.41;5134173;27;20197;-79
2023/09/05 02:06:26;;;;;;;2.40;1.45;;;;;;;-145.69;36.47;51723.59;5136286;27;20219;-80
2023/09/05 02:08:53;;;;;;;2.35;1.45;;;;;;;-145.69;36.61;51731.50;5135231;27;20223;-79
2023/09/05 02:11:19;;;;;;;1.73;1.30;;;;;;;-145.69;36.67;51743.38;5135501;27;20196;-81
2023/09/05 02:13:46;;;;;;;2.40;1.42;;;;;;;-145.69;36.28;51763.19;5136032;27;20652;-79
2023/09/05 02:16:18;;;;;;;2.35;1.33;;;;;;;-145.69;36.21;51739.44;5136156;27;20243;-79
2023/09/05 02:18:45;;;;;;;2.78;1.45;;;;;;;-145.69;36.63;51729.53;5136097;27;20604;-80
2023/09/05 02:21:12;;;;;;;2.25;1.50;;;;;;;-145.69;36.95;51727.53;5135801;27;20576;-80
2023/09/05 02:23:38;;;;;;;2.55;1.60;;;;;;;-145.69;37.01;51741.41;5135657;27;20291;-79
2023/09/05 02:26:05;;;;;;;2.63;1.50;;;;;;;-145.69;36.80;51739.44;5135506;27;20199;-80
2023/09/05 02:28:31;;;;;;;2.95;1.75;;;;;;;-145.69;36.86;51727.53;5135661;27;20192;-79
2023/09/05 02:30:58;;;;;;;2.55;1.48;;;;;;;-145.69;36.98;51763.19;5135578;27;20189;-79
2023/09/05 02:33:29;;;;;;;3.60;1.58;;;;;;;-145.69;37.13;51735.47;5135349;27;20662;-78
2023/09/05 02:36:06;;;;;;;2.13;1.30;;;;;;;-145.69;36.73;51711.72;5135718;27;20320;-79
2023/09/05 02:38:33;;;;;;;4.03;1.60;;;;;;;-145.69;37.11;51798.81;5135623;27;20212;-79
2023/09/05 02:40:59;;;;;;;2.83;1.48;;;;;;;-145.69;37.45;51743.38;5135872;27;20304;-78
2023/09/05 02:43:26;;;;;;;4.13;1.52;;;;;;;-145.69;37.39;51747.34;5135491;27;20239;-79
2023/09/05 02:45:53;;;;;;;7.13;1.60;;;;;;;-145.69;37.31;51739.44;5135448;27;20200;-80
2023/09/05 02:48:19;;;;;;;1.90;1.20;;;;;;;-145.69;37.73;51745.38;5135424;27;20543;-80
2023/09/05 02:50:48;;;;;;;1.90;1.30;;;;;;;-145.69;37.41;51759.22;5135448;27;20197;-80
2023/09/05 02:53:14;;;;;;;1.98;1.40;;;;;;;-145.69;38.01;51749.31;5135237;27;20207;-79
2023/09/05 02:55:43;;;;;;;4.57;1.50;;;;;;;-145.69;37.75;51735.47;5135327;27;20234;-80
2023/09/05 02:58:10;;;;;;;3.83;1.55;;;;;;;-145.69;37.83;51783.00;5129856;27;20193;-79
2023/09/05 03:00:37;;;;;;;2.67;1.73;;;;;;;-145.69;37.83;51731.50;5114849;28;20212;-80
2023/09/05 03:03:05;;;;;;;1.95;1.27;;;;;;;-145.69;37.60;51743.38;5114626;28;20232;-80
2023/09/05 03:05:31;;;;;;;2.80;1.55;;;;;;;-145.69;38.04;51755.25;5114671;28;20940;-79
2023/09/05 03:07:59;;;;;;;1.67;1.27;;;;;;;-145.69;37.75;51733.50;5134525;27;20193;-80
2023/09/05 03:10:26;;;;;;;2.83;1.30;;;;;;;-145.69;37.89;51761.22;5134884;27;20193;-79
2023/09/05 03:12:52;;;;;;;4.65;1.45;;;;;;;-145.69;37.83;51721.59;5134624;27;20200;-79
2023/09/05 03:15:20;;;;;;;2.70;1.27;;;;;;;-145.69;37.88;51767.16;5135043;27;20220;-80
2023/09/05 03:17:47;;;;;;;3.67;1.90;;;;;;;-145.69;38.04;51745.38;5135108;27;20300;-80
2023/09/05 03:20:15;;;;;;;2.35;1.60;;;;;;;-145.69;38.00;51747.34;5134701;27;20203;-79
2023/09/05 03:22:42;;;;;;;2.25;1.50;;;;;;;-145.69;37.73;51769.13;5134781;27;20268;-78
2023/09/05 03:25:10;;;;;;;3.30;1.85;;;;;;;-145.69;37.83;51755.25;5134577;27;20200;-80
2023/09/05 03:27:37;;;;;;;5.18;1.60;;;;;;;-145.69;37.91;51775.06;5134487;27;20216;-79
2023/09/05 03:30:04;;;;;;;2.75;1.50;;;;;;;-145.69;38.30;51775.06;5134618;27;20224;-79
2023/09/05 03:32:30;;;;;;;4.82;1.60;;;;;;;-145.69;38.02;51747.34;5134052;27;20199;-79
2023/09/05 03:34:57;;;;;;;2.17;1.45;;;;;;;-145.69;38.23;51775.06;5134069;27;20570;-78
2023/09/05 03:37:24;;;;;;;2.20;1.30;;;;;;;-145.69;37.83;51755.25;5134675;27;20192;-79
2023/09/05 03:39:51;;;;;;;2.95;1.50;;;;;;;-145.69;37.73;51771.09;5134516;27;20211;-81
2023/09/05 03:42:19;;;;;;;1.90;1.25;;;;;;;-145.69;37.85;51735.47;5134514;27;20228;-79
2023/09/05 03:44:46;;;;;;;3.78;1.70;;;;;;;-145.69;37.73;51747.34;5134554;27;20551;-77
2023/09/05 03:47:14;;;;;;;6.47;1.48;;;;;;;-145.69;37.91;51747.34;5134396;27;20568;-79
2023/09/05 03:49:41;;;;;;;3.35;1.50;;;;;;;-145.69;37.75;51773.09;5134221;27;20201;-80
2023/09/05 03:52:07;;;;;;;3.28;1.90;;;;;;;-145.69;37.79;51771.09;5134293;27;20201;-79
2023/09/05 03:54:34;;;;;;;2.35;1.40;;;;;;;-145.69;37.91;51751.31;5134116;27;20193;-79
2023/09/05 03:57:00;;;;;;;3.38;1.90;;;;;;;-145.69;37.91;51749.31;5133793;27;20220;-79
2023/09/05 03:59:28;;;;;;;3.57;1.70;;;;;;;-145.69;38.09;51749.31;5133634;27;20473;-78
2023/09/05 04:01:54;;;;;;;6.57;1.50;;;;;;;-145.69;37.60;51753.28;5134056;27;20193;-79
2023/09/05 04:04:23;;;;;;;2.42;1.50;;;;;;;-145.69;37.60;51767.16;5133625;27;20678;-79
2023/09/05 04:06:49;;;;;;;2.70;1.45;;;;;;;-145.69;37.97;51771.09;5133950;27;20555;-80
2023/09/05 04:09:25;;;;;;;3.55;1.58;;;;;;;-145.69;37.58;51747.34;5134056;27;20196;-81
2023/09/05 04:11:52;;;;;;;4.80;1.60;;;;;;;-145.69;37.55;51747.34;5134335;27;20235;-79
2023/09/05 04:14:19;;;;;;;6.43;1.85;;;;;;;-145.69;38.09;51765.16;5134168;27;20245;-79
2023/09/05 04:16:50;;;;;;;4.50;1.40;;;;;;;-145.69;37.47;51751.31;5133830;27;20235;-79
2023/09/05 04:19:16;;;;;;;2.28;1.25;;;;;;;-145.69;37.57;51761.22;5133652;27;20201;-78
2023/09/05 04:21:47;;;;;;;2.58;1.60;;;;;;;-145.69;37.64;51749.31;5134039;27;20204;-80
2023/09/05 04:24:14;;;;;;;2.35;1.30;;;;;;;-145.69;37.36;51771.09;5133885;27;20656;-80
2023/09/05 04:26:45;;;;;;;2.85;1.75;;;;;;;-145.69;37.49;51755.25;5133746;28;20204;-78
2023/09/05 04:29:14;;;;;;;2.90;1.52;;;;;;;-145.69;37.68;51749.31;5133125;27;20550;-79
2023/09/05 04:31:41;;;;;;;3.35;1.50;;;;;;;-145.69;37.58;51773.09;5133772;27;20636;-79
2023/09/05 04:34:09;;;;;;;2.88;1.55;;;;;;;-145.69;38.00;51769.13;5137008;27;20657;-79
2023/09/05 04:36:38;;;;;;;3.75;1.30;;;;;;;-145.69;37.91;51739.44;5137806;27;20690;-78
2023/09/05 04:39:04;;;;;;;2.47;1.58;;;;;;;-145.69;37.73;51745.38;5138009;27;20197;-79
2023/09/05 04:41:31;;;;;;;1.92;1.30;;;;;;;-145.69;37.98;51721.59;5137472;27;20189;-79
2023/09/05 04:43:58;;;;;;;4.00;1.42;;;;;;;-145.69;37.78;51769.13;5137593;27;20341;-79
2023/09/05 04:46:24;;;;;;;4.50;1.67;;;;;;;-145.69;38.06;51743.38;5138158;27;20201;-81
2023/09/05 04:48:51;;;;;;;2.33;1.40;;;;;;;-145.69;37.83;51745.38;5138207;27;20287;-79
2023/09/05 04:51:19;;;;;;;2.47;1.42;;;;;;;-145.69;37.73;51765.16;5137844;27;20558;-80
2023/09/05 04:53:45;;;;;;;2.25;1.38;;;;;;;-145.69;37.95;51767.16;5128594;27;20193;-80
2023/09/05 04:56:12;;;;;;;2.70;1.52;;;;;;;-145.69;38.08;51777.03;5137655;27;20227;-80
2023/09/05 04:58:38;;;;;;;2.85;1.40;;;;;;;-145.69;38.16;51763.19;5136898;27;20193;-81
2023/09/05 05:01:05;;;;;;;3.58;1.27;;;;;;;-145.69;37.59;51745.38;5137668;27;20551;-80
2023/09/05 05:03:32;;;;;;;2.28;1.38;;;;;;;-145.69;38.01;51741.41;5137183;27;20887;-80
2023/09/05 05:05:58;;;;;;;2.47;1.63;;;;;;;-145.69;37.90;51747.34;5137282;27;20211;-79
2023/09/05 05:08:29;;;;;;;1.85;1.40;;;;;;;-145.69;37.49;51761.22;5135414;27;20204;-80
2023/09/05 05:10:56;;;;;;;3.90;1.70;;;;;;;-145.69;37.70;51743.38;5137604;27;20250;-79
2023/09/05 05:13:25;;;;;;;2.28;1.33;;;;;;;-145.69;37.37;51739.44;5137966;27;20207;-80
2023/09/05 05:15:52;;;;;;;2.55;1.67;;;;;;;-145.69;37.78;51796.84;5136232;27;20255;-79
2023/09/05 05:18:19;;;;;;;3.10;1.40;;;;;;;-145.69;37.77;51790.91;5137643;27;20205;-79
2023/09/05 05:20:49;;;;;;;3.55;1.65;;;;;;;-145.69;37.42;51753.28;5136910;27;20695;-79
2023/09/05 05:23:15;;;;;;;9.23;1.90;;;;;;;-145.69;37.39;51783.00;5136970;27;20235;-79
2023/09/05 05:25:43;;;;;;;2.05;1.48;;;;;;;-145.69;37.64;51755.25;5136771;27;20212;-80
2023/09/05 05:28:12;;;;;;;2.53;1.23;;;;;;;-145.69;37.69;51761.22;5137400;27;20223;-79
2023/09/05 05:30:39;;;;;;;3.97;1.70;;;;;;;-145.69;37.58;51747.34;5136066;27;20238;-80
2023/09/05 05:33:08;;;;;;;3.53;1.90;;;;;;;-145.69;37.85;51761.22;5135749;27;20604;-80
2023/09/05 05:35:34;;;;;;;4.10;1.63;;;;;;;-145.69;38.15;51739.44;5136070;27;20211;-79
2023/09/05 05:38:01;;;;;;;3.25;1.50;;;;;;;-145.69;37.39;51757.25;5136820;27;20197;-79
2023/09/05 05:40:28;;;;;;;3.15;1.90;;;;;;;-145.69;37.65;51767.16;5137131;27;20197;-82
2023/09/05 05:42:56;;;;;;;6.32;2.00;;;;;;;-145.69;37.71;51737.44;5136338;27;20702;-78
2023/09/05 05:45:22;;;;;;;2.15;1.40;;;;;;;-145.69;37.50;51775.06;5137153;27;20196;-80
2023/09/05 05:47:49;;;;;;;3.85;1.52;;;;;;;-145.69;37.46;51727.53;5137034;27;20291;-81
2023/09/05 05:50:15;;;;;;;3.38;1.98;;;;;;;-145.69;37.60;51747.34;5136560;27;20201;-81
2023/09/05 05:52:46;;;;;;;4.30;1.90;;;;;;;-145.69;37.49;51727.53;5136717;27;20201;-79
2023/09/05 05:55:18;;;;;;;3.13;1.80;;;;;;;-145.69;37.96;51733.50;5136788;27;20189;-79
2023/09/05 05:57:45;;;;;;;3.63;1.90;;;;;;;-145.69;37.82;51733.50;5136625;27;20307;-80
2023/09/05 06:00:13;;;;;;;4.07;1.70;;;;;;;-145.69;37.75;51763.19;5136198;27;20193;-79
2023/09/05 06:02:40;;;;;;;2.85;1.60;;;;;;;-145.69;38.35;51727.53;5136765;27;20203;-82
2023/09/05 06:05:07;;;;;;;4.70;1.73;;;;;;;-145.69;38.49;51747.34;5136413;27;20200;-80
2023/09/05 06:07:34;;;;;;;2.65;1.90;;;;;;;-145.69;38.29;51723.59;5136103;27;20670;-80
2023/09/05 06:10:00;;;;;;;3.88;2.00;;;;;;;-145.69;38.51;51747.34;5135135;27;20930;-80
2023/09/05 06:12:27;;;;;;;2.15;1.52;;;;;;;-145.69;38.55;51735.47;5136094;27;20192;-78
2023/09/05 06:14:53;;;;;;;2.88;1.60;;;;;;;-145.69;38.84;51733.50;5136249;27;20208;-80
2023/09/05 06:17:23;;;;;;;4.47;1.95;;;;;;;-145.69;38.80;51731.50;5136044;27;20232;-80
2023/09/05 06:19:50;;;;;;;2.40;1.70;;;;;;;-145.69;38.77;51731.50;5136566;27;20304;-81
2023/09/05 06:22:16;;;;;;;3.30;2.08;;;;;;;-145.69;38.88;51719.63;5136338;27;20546;-79
2023/09/05 06:24:43;;;;;;;2.95;1.80;;;;;;;-145.69;38.52;51747.34;5136064;27;20555;-80
2023/09/05 06:27:10;;;;;;;2.35;1.67;;;;;;;-145.69;38.82;51747.34;5135777;27;20651;-79
2023/09/05 06:29:37;;;;;;;3.53;2.17;;;;;;;-145.69;38.80;51729.53;5135862;27;20200;-82
2023/09/05 06:32:04;;;;;;;2.50;1.60;;;;;;;-145.69;38.24;51737.44;5135956;27;20287;-80
2023/09/05 06:34:32;;;;;;;3.60;1.80;;;;;;;-145.69;38.00;51719.63;5136056;27;20203;-79
2023/09/05 06:36:59;;;;;;;4.18;1.80;;;;;;;-145.69;38.39;51765.16;5135126;27;20220;-79
2023/09/05 06:39:25;;;;;;;7.10;1.67;;;;;;;-145.69;38.27;51761.22;5135923;27;20204;-78
2023/09/05 06:41:52;;;;;;;3.05;1.70;;;;;;;-145.69;37.96;51715.66;5135315;27;20196;-79
2023/09/05 06:44:18;;;;;;;2.80;1.58;;;;;;;-145.69;37.98;51745.38;5131356;27;20224;-78
2023/09/05 06:46:45;;;;;;;4.45;1.55;;;;;;;-145.69;37.71;51717.66;5135500;27;20204;-78
2023/09/05 06:49:13;;;;;;;2.08;1.55;;;;;;;-145.69;37.65;51737.44;5135695;27;20292;-80
2023/09/05 06:51:46;;;;;;;4.40;2.00;;;;;;;-145.69;37.21;51719.63;5135328;27;20714;-79
2023/09/05 06:54:13;;;;;;;3.78;1.60;;;;;;;-145.69;37.72;51727.53;5135385;27;20193;-79
2023/09/05 06:56:39;;;;;;;3.00;1.60;;;;;;;-145.69;37.79;51721.59;5134501;27;20224;-79
2023/09/05 06:59:17;;;;;;;2.95;1.75;;;;;;;-145.69;38.34;51729.53;5134794;27;20192;-79
2023/09/05 07:01:43;;;;;;;4.40;1.88;;;;;;;-145.69;37.94;51731.50;5135063;27;20551;-79
2023/09/05 07:04:10;;;;;;;2.80;1.40;;;;;;;-145.69;37.77;51703.78;5135259;27;20204;-79
2023/09/05 07:06:37;;;;;;;3.92;1.65;;;;;;;-145.69;38.30;51725.56;5134420;27;20204;-79
2023/09/05 07:09:05;;;;;;;5.75;1.58;;;;;;;-145.69;38.02;51709.72;5134925;27;20243;-79
2023/09/05 07:11:32;;;;;;;2.50;1.40;;;;;;;-145.69;38.03;51715.66;5134683;27;20192;-79
2023/09/05 07:13:58;;;;;;;3.03;1.75;;;;;;;-145.69;37.83;51751.31;5135151;27;20196;-79
2023/09/05 07:16:25;;;;;;;3.17;1.88;;;;;;;-145.69;38.12;51713.69;5134659;27;20874;-80
2023/09/05 07:18:52;;;;;;;3.15;1.38;;;;;;;-145.69;37.66;51729.53;5135097;27;20193;-79
2023/09/05 07:21:21;;;;;;;2.60;1.60;;;;;;;-145.69;37.29;51707.75;5134764;27;20291;-80
2023/09/05 07:23:47;;;;;;;4.57;1.67;;;;;;;-145.69;37.50;51711.72;5134560;27;20197;-79
2023/09/05 07:26:15;;;;;;;3.70;1.80;;;;;;;-145.69;37.24;51739.44;5134270;27;20536;-79
2023/09/05 07:28:42;;;;;;;2.65;1.50;;;;;;;-145.69;37.09;51711.72;5134272;27;20196;-79
2023/09/05 07:31:10;;;;;;;4.30;1.58;;;;;;;-145.69;36.75;51707.75;5134400;27;20196;-80
2023/09/05 07:33:37;;;;;;;2.75;1.77;;;;;;;-145.69;37.30;51703.78;5134689;27;20197;-79
2023/09/05 07:36:05;;;;;;;3.33;1.67;;;;;;;-145.69;36.66;51687.94;5134313;27;20193;-80
2023/09/05 07:38:32;;;;;;;2.33;1.33;;;;;;;-145.69;37.09;51715.66;5134205;27;20271;-79
2023/09/05 07:41:02;;;;;;;2.53;1.60;;;;;;;-145.69;36.95;51711.72;5134265;27;20651;-79
2023/09/05 07:43:33;;;;;;;3.05;1.98;;;;;;;-145.69;38.98;51695.88;5134374;27;20598;-81
2023/09/05 07:46:11;;;;;;;3.25;1.50;;;;;;;-145.69;38.70;51691.91;5134951;27;20201;-80
2023/09/05 07:48:37;;;;;;;3.13;1.50;;;;;;;-145.69;38.01;51695.88;5135082;27;20218;-80
2023/09/05 07:51:07;;;;;;;3.67;1.63;;;;;;;-145.69;37.24;51707.75;5134694;27;20231;-81
2023/09/05 07:53:37;;;;;;;2.88;1.75;;;;;;;-145.69;37.24;51709.72;5135024;27;20204;-81
2023/09/05 07:56:09;;;;;;;2.35;1.65;;;;;;;-145.69;37.24;51670.13;5135295;27;20265;-81
2023/09/05 07:58:37;;;;;;;2.00;1.40;;;;;;;-145.69;36.68;51693.88;5134088;27;20201;-80
2023/09/05 08:01:06;;;;;;;2.63;1.40;;;;;;;-145.69;37.37;51697.84;5134089;27;20251;-80
2023/09/05 08:03:33;;;;;;;4.18;1.90;;;;;;;-145.69;36.93;51713.69;5133793;27;20192;-80
2023/09/05 08:06:00;;;;;;;5.00;1.58;;;;;;;-145.69;37.12;51682.00;5134248;27;20197;-79
2023/09/05 08:08:38;;;;;;;5.80;1.73;;;;;;;-145.69;36.91;51691.91;5134530;27;20205;-81
2023/09/05 08:11:06;;;;;;;2.10;1.63;;;;;;;-145.69;36.50;51687.94;5133968;27;20713;-79
2023/09/05 08:13:32;;;;;;;2.97;1.40;;;;;;;-145.69;36.80;51697.84;5133891;27;20193;-80
2023/09/05 08:16:02;;;;;;;3.13;1.65;;;;;;;-145.69;37.19;51680.03;5134018;27;20302;-80
2023/09/05 08:18:30;;;;;;;2.63;1.50;;;;;;;-145.69;37.23;51701.81;5134550;27;20492;-78
2023/09/05 08:20:58;;;;;;;3.45;1.40;;;;;;;-145.69;36.29;51680.03;5117859;27;20563;-77
2023/09/05 08:23:24;;;;;;;2.10;1.40;;;;;;;-145.69;36.40;51691.91;5113359;28;20197;-78
2023/09/05 08:25:51;;;;;;;2.67;1.38;;;;;;;-145.69;36.06;51689.94;5131257;27;20197;-78
2023/09/05 08:28:20;;;;;;;1.98;1.40;;;;;;;-145.69;35.98;51689.94;5133530;27;20201;-77
2023/09/05 08:30:47;;;;;;;1.88;1.50;;;;;;;-145.69;36.32;51699.81;5133364;27;20580;-82
2023/09/05 08:33:17;;;;;;;4.93;1.13;;;;;;;-145.69;35.63;51685.97;5134235;27;20535;-78
2023/09/05 08:35:45;;;;;;;1.67;1.17;;;;;;;-145.69;36.21;51652.31;5136000;27;20193;-80
2023/09/05 08:38:12;;;;;;;3.42;1.15;;;;;;;-145.69;36.20;51678.03;5133898;28;20299;-79
2023/09/05 08:40:39;;;;;;;2.10;1.40;;;;;;;-145.69;35.85;51656.25;5133280;27;20196;-78
2023/09/05 08:43:07;;;;;;;2.38;1.30;;;;;;;-145.69;35.70;51660.22;5132278;28;20227;-79
2023/09/05 08:45:37;;;;;;;2.00;1.33;;;;;;;-145.69;35.88;51656.25;5130501;27;20195;-78
2023/09/05 08:48:05;;;;;;;2.92;1.25;;;;;;;-145.69;35.54;51668.16;5133667;27;20207;-79
2023/09/05 08:50:39;;;;;;;2.00;1.30;;;;;;;-145.69;35.28;51660.22;5133388;27;20195;-79
2023/09/05 08:53:15;;;;;;;2.25;1.30;;;;;;;-145.69;34.76;51678.03;5134608;27;20231;-77
2023/09/05 08:55:42;;;;;;;4.03;1.40;;;;;;;-145.69;35.03;51640.44;5133355;27;20192;-78
2023/09/05 08:58:14;;;;;;;1.85;0.95;;;;;;;-145.69;35.45;51652.31;5133381;27;20231;-79
2023/09/05 09:00:41;;;;;;;1.73;0.88;;;;;;;-145.69;34.39;51668.16;5133674;27;20200;-81
2023/09/05 09:03:10;;;;;;;2.53;1.13;;;;;;;-145.69;34.71;51680.03;5133470;27;20632;-78
2023/09/05 09:05:46;;;;;;;2.22;1.35;;;;;;;-145.69;34.35;51672.09;5133433;27;20208;-78
2023/09/05 09:08:13;;;;;;;1.52;0.93;;;;;;;-145.69;34.90;51656.25;5132676;27;20189;-79
2023/09/05 09:10:43;;;;;;;3.45;1.10;;;;;;;-145.69;34.47;51656.25;5135038;27;20213;-80
2023/09/05 09:13:17;;;;;;;9.77;1.95;;;;;;;-145.69;34.18;51656.25;5133462;27;20201;-82
2023/09/05 09:15:46;;;;;;;2.00;1.27;;;;;;;-145.69;34.52;51660.22;5133210;27;20283;-78
2023/09/05 09:18:13;;;;;;;3.42;1.50;;;;;;;-145.69;34.58;51648.34;5133323;27;20264;-79
2023/09/05 09:20:44;;;;;;;3.28;1.10;;;;;;;-145.69;34.14;51687.94;5136880;27;20204;-78
2023/09/05 09:23:11;;;;;;;1.58;0.95;;;;;;;-145.69;34.64;51644.38;5137206;27;20217;-79
2023/09/05 09:25:50;;;;;;;1.60;1.10;;;;;;;-145.69;34.34;51656.25;5137006;27;20197;-78
2023/09/05 09:28:23;;;;;;;2.00;1.10;;;;;;;-145.69;34.90;51634.47;5136962;27;20204;-79
2023/09/05 09:31:04;;;;;;;2.90;1.10;;;;;;;-145.69;33.98;51642.41;5136551;27;20241;-79
2023/09/05 09:33:33;;;;;;;2.42;0.90;;;;;;;-145.69;34.09;51656.25;5116566;28;20205;-78
2023/09/05 09:36:07;;;;;;;1.35;0.93;;;;;;;-145.69;33.25;51672.09;5126495;27;20242;-79
2023/09/05 09:38:34;;;;;;;3.63;0.98;;;;;;;-145.69;34.17;51640.44;5136891;27;20224;-78
2023/09/05 09:41:06;;;;;;;1.40;0.90;;;;;;;-145.69;33.77;51660.22;5136822;27;20199;-79
2023/09/05 09:43:34;;;;;;;1.02;0.82;;;;;;;-145.69;34.25;51644.38;5136261;27;20228;-78
2023/09/05 09:46:01;;;;;;;1.65;0.95;;;;;;;-145.69;33.80;51612.72;5135702;27;20189;-78
2023/09/05 09:48:30;;;;;;;1.75;1.00;;;;;;;-145.69;34.13;51628.53;5135798;27;20185;-78
2023/09/05 09:50:59;;;;;;;0.98;0.80;;;;;;;-145.69;33.90;51642.41;5136681;27;20241;-79
2023/09/05 09:53:34;;;;;;;1.13;1.00;;;;;;;-145.69;33.26;51648.34;5136258;27;20718;-78
2023/09/05 09:56:08;;;;;;;1.30;0.88;;;;;;;-145.69;34.30;51652.31;5136195;27;20647;-78
2023/09/05 09:58:44;;;;;;;1.48;0.82;;;;;;;-145.69;34.50;51646.38;5135996;27;20849;-78
2023/09/05 10:01:12;;;;;;;1.83;0.90;;;;;;;-145.69;33.82;51648.34;5126856;27;20199;-78
2023/09/05 10:03:40;;;;;;;2.50;1.35;;;;;;;-145.69;34.77;51632.50;5135064;27;20196;-79
2023/09/05 10:06:08;;;;;;;2.03;1.10;;;;;;;-145.69;34.23;51636.47;5136066;27;20566;-78
2023/09/05 10:08:36;;;;;;;2.33;1.05;;;;;;;-145.69;33.67;51652.31;5135729;27;20224;-77
2023/09/05 10:11:03;;;;;;;2.70;1.08;;;;;;;-145.69;33.75;51632.50;5136474;27;20607;-80
2023/09/05 10:13:35;;;;;;;1.30;0.90;;;;;;;-145.69;34.77;51620.63;5136299;27;20196;-80
2023/09/05 10:16:02;;;;;;;2.28;0.77;;;;;;;-145.69;33.56;51610.72;5136459;27;20208;-80
2023/09/05 10:18:38;;;;;;;1.13;0.88;;;;;;;-145.69;33.83;51634.47;5136708;27;20231;-81
2023/09/05 10:21:07;;;;;;;3.75;1.05;;;;;;;-145.69;34.39;51612.72;5137970;27;20199;-80
2023/09/05 10:23:40;;;;;;;3.03;1.10;;;;;;;-145.69;33.22;51630.53;5137215;27;20193;-79
2023/09/05 10:26:08;;;;;;;2.85;1.20;;;;;;;-145.69;33.59;51628.53;5135220;27;20204;-80
2023/09/05 10:28:35;;;;;;;3.13;1.30;;;;;;;-145.69;33.40;51654.28;5135794;27;20220;-80
2023/09/05 10:31:06;;;;;;;5.97;1.00;;;;;;;-145.69;33.31;51616.66;5134911;27;20200;-79
2023/09/05 10:33:34;;;;;;;49.47;6.47;;;;;;;-145.69;32.96;51640.44;5135559;27;20652;-80
2023/09/05 10:36:02;;;;;;;9.82;1.92;;;;;;;-145.69;33.03;51632.50;5135871;27;20212;-82
2023/09/05 10:38:33;;;;;;;1.30;0.85;;;;;;;-145.69;32.98;51618.66;5134802;27;20223;-80
2023/09/05 10:41:03;;;;;;;1.65;1.00;;;;;;;-145.69;33.05;51620.63;5135730;27;20203;-79
2023/09/05 10:43:32;;;;;;;2.80;0.90;;;;;;;-145.69;33.03;51646.38;5135409;27;20289;-80
2023/09/05 10:46:00;;;;;;;1.05;0.60;;;;;;;-145.69;32.12;51610.72;5134829;27;20204;-79
2023/09/05 10:48:40;;;;;;;1.23;0.80;;;;;;;-145.69;32.33;51600.81;5114752;28;20300;-80
2023/09/05 10:51:10;;;;;;;1.35;0.80;;;;;;;-145.69;32.82;51616.66;5115577;27;20205;-79
2023/09/05 10:53:39;;;;;;;0.77;0.57;;;;;;;-145.69;32.82;51620.63;5135497;27;20245;-81
2023/09/05 10:56:43;;;;;;;1.73;1.10;;;;;;;-145.69;32.15;51632.50;5131948;27;20212;-80
2023/09/05 10:59:11;;;;;;;1.23;0.95;;;;;;;-145.69;32.93;51600.81;5123512;27;20556;-80
2023/09/05 11:02:02;;;;;;;1.05;0.80;;;;;;;-145.69;32.96;51622.59;5134964;27;20199;-80
2023/09/05 11:04:34;;;;;;;4.32;1.08;;;;;;;-145.69;33.00;51608.75;5135291;27;20197;-80
2023/09/05 11:07:09;;;;;;;3.72;1.10;;;;;;;-145.69;32.33;51590.94;5134493;27;20552;-80
2023/09/05 11:09:49;;;;;;;1.05;0.80;;;;;;;-145.69;32.08;51612.72;5134595;27;20212;-80
2023/09/05 11:12:17;;;;;;;0.80;0.80;;;;;;;-145.69;32.22;51654.28;5135138;27;20197;-80
2023/09/05 11:14:44;;;;;;;0.60;0.52;;;;;;;-145.69;32.23;51620.63;5135023;27;20204;-82
2023/09/05 11:17:15;;;;;;;0.70;0.65;;;;;;;-145.69;31.12;51624.59;5134657;27;20579;-82
2023/09/05 11:19:45;;;;;;;1.25;0.80;;;;;;;-145.69;31.04;51608.75;5135200;27;20207;-81
2023/09/05 11:22:15;;;;;;;1.50;0.70;;;;;;;-145.69;30.63;51618.66;5134819;27;20262;-82